Main page
Satellite images 15-day forecastsClimateMarine weather Cyclones Lightning AirportsFAQ Newsletter About
Weather : Europe Africa North America South America Asia Australia-Oceania Others
Languages Contact

Gomel, Belarus

latitude: 52-31-36N, longitude: 031-01-06E, elevation: 144 m


METAR: UMGG 250000Z 07002MPS CAVOK 03/M02 Q1026 R10/CLRD// NOSIG
short-TAF: out of date (14380 hours)
long-TAF: UMGG 241645Z 2418/2518 06004MPS 9999 SCT020 TEMPO 2421/2505 2000 BR SCT005 BECMG 2505/2507 06007MPS

Time: 03:53 (00:53 UTC)

Current weather observation

The report was made 53 minutes ago, at 00:00 UTC  
Wind 4 kt from east/northeast
Temperature 3°C
Humidity 70%
Pressure 1026 hPa
Visibility 10 km or more
no clouds below 1500 m and no cumulonimbus

Change units

Forecast

The report was made 7 hours and 32 minutes ago, at 17:21 UTC  
Forecast valid from 24 at 18 UTC to 25 at 18 UTC
Wind 8 kt from east/northeast
Visibility 10 km or more
Scattered clouds at a height of 2000 ft
Temporary
from 24 at 21 UTC to 25 at 05 UTC
Visibility 2000 m
Scattered clouds at a height of 500 ft
mist
Becoming
from 25 at 05 UTC to 25 at 07 UTC
Wind 14 kt from east/northeast
The information on this site is subject to a disclaimer
Weather : Europe Africa North America South America Asia Australia-Oceania Others
Satellite images 15-day forecastsClimateMarine weather Cyclones Lightning AirportsFAQ Languages Contact Newsletter About